createdAt,value
2023-04-16T00:01:33.542Z,9.11
2023-04-16T00:06:38.806Z,9.09
2023-04-16T00:11:44.294Z,9.06
2023-04-16T00:16:49.651Z,9.05
2023-04-16T00:21:55.474Z,9.06
2023-04-16T00:27:01.573Z,9.08
2023-04-16T00:32:07.629Z,9.07
2023-04-16T00:37:12.918Z,9.07
2023-04-16T00:42:18.381Z,9.07
2023-04-16T00:47:24.139Z,9.03
2023-04-16T00:52:31.382Z,9.02
2023-04-16T00:57:36.628Z,9.01
2023-04-16T01:02:42.475Z,8.99
2023-04-16T01:07:47.902Z,8.94
2023-04-16T01:12:53.335Z,8.93
2023-04-16T01:17:58.671Z,8.90
2023-04-16T01:23:04.172Z,8.90
2023-04-16T01:28:09.526Z,8.93
2023-04-16T01:33:15.802Z,8.88
2023-04-16T01:38:21.070Z,8.84
2023-04-16T01:43:26.586Z,8.80
2023-04-16T01:48:31.945Z,8.79
2023-04-16T01:53:37.432Z,8.78
2023-04-16T01:58:42.918Z,8.74
2023-04-16T02:03:48.864Z,8.68
2023-04-16T02:08:54.379Z,8.70
2023-04-16T02:13:59.709Z,8.70
2023-04-16T02:19:04.972Z,8.68
2023-04-16T02:24:10.431Z,8.67
2023-04-16T02:29:16.537Z,8.68
2023-04-16T02:34:21.948Z,8.65
2023-04-16T02:39:27.312Z,8.60
2023-04-16T02:44:32.670Z,8.56
2023-04-16T02:49:37.967Z,8.52
2023-04-16T02:54:43.481Z,8.49
2023-04-16T02:59:48.903Z,8.44
2023-04-16T03:04:54.436Z,8.43
2023-04-16T03:09:59.732Z,8.41
2023-04-16T03:15:06.273Z,8.42
2023-04-16T03:20:12.421Z,8.40
2023-04-16T03:25:17.968Z,8.35
2023-04-16T03:30:23.224Z,8.29
2023-04-16T03:35:28.661Z,8.27
2023-04-16T03:40:33.949Z,8.26
2023-04-16T03:45:45.344Z,8.25
2023-04-16T03:50:50.860Z,8.22
2023-04-16T03:55:56.297Z,8.16
2023-04-16T04:01:01.588Z,8.14
2023-04-16T04:06:09.658Z,8.09
2023-04-16T04:11:15.009Z,8.06
2023-04-16T04:16:22.898Z,8.04
2023-04-16T04:21:28.964Z,8.06
2023-04-16T04:26:34.446Z,8.10
2023-04-16T04:31:39.818Z,8.10
2023-04-16T04:36:45.203Z,8.11
2023-04-16T04:41:50.622Z,8.13
2023-04-16T04:46:56.342Z,8.11
2023-04-16T04:52:02.078Z,8.08
2023-04-16T04:57:07.419Z,8.07
2023-04-16T05:02:13.171Z,8.06
2023-04-16T05:07:18.628Z,8.05
2023-04-16T05:12:24.068Z,8.03
2023-04-16T05:17:29.716Z,8.04
2023-04-16T05:22:35.225Z,8.05
2023-04-16T05:27:40.659Z,8.07
2023-04-16T05:32:46.128Z,8.08
2023-04-16T05:37:51.539Z,8.08
2023-04-16T05:42:56.905Z,8.06
2023-04-16T05:48:02.450Z,8.10
2023-04-16T05:53:09.048Z,8.16
2023-04-16T05:58:14.436Z,8.24
2023-04-16T06:03:19.831Z,8.27
2023-04-16T06:08:26.218Z,8.25
2023-04-16T06:13:31.510Z,8.26
2023-04-16T06:18:36.846Z,8.29
2023-04-16T06:23:42.111Z,8.36
2023-04-16T06:28:47.468Z,8.41
2023-04-16T06:33:52.736Z,8.43
2023-04-16T06:38:58.109Z,8.49
2023-04-16T06:44:03.430Z,8.45
2023-04-16T06:49:09.023Z,8.45
2023-04-16T06:54:14.621Z,8.49
2023-04-16T06:59:19.938Z,8.56
2023-04-16T07:04:26.007Z,8.60
2023-04-16T07:09:31.481Z,8.62
2023-04-16T07:14:36.922Z,8.59
2023-04-16T07:19:42.233Z,8.57
2023-04-16T07:24:47.470Z,8.60
2023-04-16T07:29:52.852Z,8.57
2023-04-16T07:34:58.149Z,8.54
2023-04-16T07:40:05.247Z,8.48
2023-04-16T07:45:12.593Z,8.48
2023-04-16T07:50:19.466Z,8.45
2023-04-16T07:55:25.033Z,8.47
2023-04-16T08:00:30.851Z,8.48
2023-04-16T08:05:36.106Z,8.48
2023-04-16T08:10:41.445Z,8.47
2023-04-16T08:15:46.836Z,8.50
2023-04-16T08:20:52.350Z,8.52
2023-04-16T08:25:57.678Z,8.49
2023-04-16T08:31:03.257Z,8.53
2023-04-16T08:36:09.058Z,8.54
2023-04-16T08:41:15.798Z,8.53
2023-04-16T08:46:24.996Z,8.51
2023-04-16T08:51:34.216Z,8.56
2023-04-16T08:56:43.047Z,8.71
2023-04-16T09:01:49.430Z,8.94
2023-04-16T09:06:56.610Z,9.12
2023-04-16T09:12:02.470Z,9.25
2023-04-16T09:17:08.997Z,9.25
2023-04-16T09:22:14.411Z,9.22
2023-04-16T09:27:19.851Z,9.25
2023-04-16T09:32:28.707Z,9.26
2023-04-16T09:37:34.052Z,9.26
2023-04-16T09:42:39.378Z,9.28
2023-04-16T09:47:45.896Z,9.31
2023-04-16T09:52:51.903Z,9.36
2023-04-16T09:58:02.293Z,9.43
2023-04-16T10:03:07.932Z,9.47
2023-04-16T10:08:17.267Z,9.39
2023-04-16T10:13:22.718Z,9.40
2023-04-16T10:18:29.307Z,9.44
2023-04-16T10:23:35.538Z,9.56
2023-04-16T10:28:41.942Z,9.66
2023-04-16T10:33:47.930Z,9.75
2023-04-16T10:38:57.546Z,9.96
2023-04-16T10:44:10.086Z,10.20
2023-04-16T10:49:17.894Z,10.32
2023-04-16T10:54:26.466Z,10.40
2023-04-16T10:59:34.969Z,10.50
2023-04-16T11:04:42.806Z,10.65
2023-04-16T11:09:52.378Z,10.66
2023-04-16T11:15:00.944Z,10.61
2023-04-16T11:20:19.089Z,10.47
2023-04-16T11:25:26.994Z,10.40
2023-04-16T11:30:34.234Z,10.44
2023-04-16T11:35:39.950Z,10.47
2023-04-16T11:40:45.331Z,10.45
2023-04-16T11:45:59.880Z,10.40
2023-04-16T11:51:05.446Z,10.36
2023-04-16T11:56:10.768Z,10.29
2023-04-16T12:01:21.641Z,10.20
2023-04-16T12:06:27.261Z,10.12
2023-04-16T12:11:42.591Z,10.01
2023-04-16T12:16:47.942Z,9.97
2023-04-16T12:21:54.872Z,9.94
2023-04-16T12:27:03.297Z,9.92
2023-04-16T12:32:23.454Z,9.90
2023-04-16T12:37:28.762Z,9.87
2023-04-16T12:42:37.699Z,9.81
2023-04-16T12:47:43.431Z,9.75
2023-04-16T12:52:48.955Z,9.75
2023-04-16T12:57:54.639Z,9.71
2023-04-16T13:03:00.414Z,9.67
2023-04-16T13:08:06.218Z,9.72
2023-04-16T13:13:11.522Z,9.79
2023-04-16T13:18:16.850Z,9.91
2023-04-16T13:23:22.293Z,10.00
2023-04-16T13:28:27.716Z,10.12
2023-04-16T13:33:33.330Z,10.21
2023-04-16T13:38:39.493Z,10.31
2023-04-16T13:43:44.895Z,10.38
2023-04-16T13:48:50.687Z,10.48
2023-04-16T13:53:56.573Z,10.59
2023-04-16T13:59:01.990Z,10.66
2023-04-16T14:04:08.442Z,10.67
2023-04-16T14:09:13.694Z,10.66
2023-04-16T14:14:19.161Z,10.60
2023-04-16T14:19:24.679Z,10.54
2023-04-16T14:24:30.048Z,10.50
2023-04-16T14:29:36.485Z,10.42
2023-04-16T14:34:41.861Z,10.32
2023-04-16T14:39:47.367Z,10.28
2023-04-16T14:44:52.633Z,10.15
2023-04-16T14:50:00.582Z,10.07
2023-04-16T14:55:06.884Z,9.96
2023-04-16T15:00:17.165Z,9.90
2023-04-16T15:05:22.437Z,9.86
2023-04-16T15:10:27.904Z,9.89
2023-04-16T15:15:33.505Z,9.90
2023-04-16T15:20:38.901Z,9.87
2023-04-16T15:25:44.221Z,9.88
2023-04-16T15:30:49.932Z,9.87
2023-04-16T15:35:55.224Z,9.86
2023-04-16T15:41:01.462Z,9.87
2023-04-16T15:46:08.648Z,9.86
2023-04-16T15:51:14.300Z,9.86
2023-04-16T15:56:19.620Z,9.85
2023-04-16T16:01:25.177Z,9.82
2023-04-16T16:06:31.572Z,9.79
2023-04-16T16:11:38.376Z,9.70
2023-04-16T16:16:43.906Z,9.63
2023-04-16T16:21:49.499Z,9.57
2023-04-16T16:26:54.786Z,9.48
2023-04-16T16:32:00.402Z,9.39
2023-04-16T16:37:06.396Z,9.32
2023-04-16T16:42:11.970Z,9.26
2023-04-16T16:47:17.270Z,9.21
2023-04-16T16:52:25.054Z,9.17
2023-04-16T16:57:30.365Z,9.16
2023-04-16T17:02:35.779Z,9.17
2023-04-16T17:07:41.448Z,9.21
2023-04-16T17:12:47.325Z,9.25
2023-04-16T17:17:52.896Z,9.23
2023-04-16T17:22:59.434Z,9.18
2023-04-16T17:28:05.151Z,9.12
2023-04-16T17:33:10.494Z,9.07
2023-04-16T17:38:16.123Z,9.01
2023-04-16T17:43:21.422Z,8.98
2023-04-16T17:48:26.898Z,8.98
2023-04-16T17:53:32.354Z,8.92
2023-04-16T17:58:37.790Z,8.89
2023-04-16T18:03:44.393Z,8.86
2023-04-16T18:08:49.853Z,8.84
2023-04-16T18:13:55.331Z,8.80
2023-04-16T18:19:00.616Z,8.74
2023-04-16T18:24:06.800Z,8.72
2023-04-16T18:29:13.229Z,8.68
2023-04-16T18:34:18.981Z,8.64
2023-04-16T18:39:24.422Z,8.58
2023-04-16T18:44:29.806Z,8.55
2023-04-16T18:49:35.329Z,8.52
2023-04-16T18:54:43.844Z,8.51
2023-04-16T18:59:49.503Z,8.44
2023-04-16T19:04:54.934Z,8.39
2023-04-16T19:10:02.480Z,8.32
2023-04-16T19:15:09.253Z,8.28
2023-04-16T19:20:15.333Z,8.27
2023-04-16T19:25:20.791Z,8.26
2023-04-16T19:30:26.445Z,8.22
2023-04-16T19:35:31.820Z,8.18
2023-04-16T19:40:37.890Z,8.16
2023-04-16T19:45:46.854Z,8.10
2023-04-16T19:50:52.520Z,8.12
2023-04-16T19:55:57.844Z,8.11
2023-04-16T20:01:07.954Z,8.08
2023-04-16T20:06:13.485Z,8.05
2023-04-16T20:11:18.883Z,8.00
2023-04-16T20:16:24.828Z,7.97
2023-04-16T20:21:31.658Z,7.94
2023-04-16T20:26:36.988Z,7.87
2023-04-16T20:31:44.317Z,7.78
2023-04-16T20:36:49.557Z,7.75
2023-04-16T20:41:57.520Z,7.71
2023-04-16T20:47:02.837Z,7.71
2023-04-16T20:52:08.246Z,7.66
2023-04-16T20:57:13.554Z,7.58
2023-04-16T21:02:20.678Z,7.52
2023-04-16T21:07:26.229Z,7.49
2023-04-16T21:12:31.488Z,7.48
2023-04-16T21:17:37.139Z,7.42
2023-04-16T21:22:42.529Z,7.39
2023-04-16T21:27:47.793Z,7.37
2023-04-16T21:32:53.434Z,7.37
2023-04-16T21:37:58.700Z,7.35
2023-04-16T21:43:04.194Z,7.31
2023-04-16T21:48:09.593Z,7.24
2023-04-16T21:53:15.100Z,7.16
2023-04-16T21:58:20.419Z,7.14
2023-04-16T22:03:27.601Z,7.16
2023-04-16T22:08:33.162Z,7.11
2023-04-16T22:13:42.059Z,7.05
2023-04-16T22:18:47.927Z,7.01
2023-04-16T22:23:53.362Z,6.98
2023-04-16T22:28:58.610Z,6.94
2023-04-16T22:34:03.944Z,6.92
2023-04-16T22:39:09.184Z,6.90
2023-04-16T22:44:14.862Z,6.88
2023-04-16T22:49:20.262Z,6.85
2023-04-16T22:54:29.445Z,6.84
2023-04-16T22:59:34.742Z,6.82
2023-04-16T23:04:40.066Z,6.78
2023-04-16T23:09:45.414Z,6.77
2023-04-16T23:14:51.307Z,6.75
2023-04-16T23:19:56.784Z,6.74
2023-04-16T23:25:02.125Z,6.68
2023-04-16T23:30:10.590Z,6.67
2023-04-16T23:35:22.645Z,6.68
2023-04-16T23:40:26.558Z,6.65
2023-04-16T23:45:31.934Z,6.59
2023-04-16T23:50:37.220Z,6.57
2023-04-16T23:55:42.694Z,6.55
